Time;durP1;ratioP1;P1;durP2;ratioP2;P2;SDS_P1;SDS_P2;PMS_P1;PMS_P2;Temp;Humidity;BMP_temperature;BMP_pressure;BME280_temperature;BME280_humidity;BME280_pressure;Samples;Min_cycle;Max_cycle;Signal;HPM_P1;HPM_P2
2023/12/11 00:01:20;;;;;;;39.55;5.72;;;10.70;99.90;;;;;;4848084;29;20355;-79
2023/12/11 00:03:45;;;;;;;40.55;5.80;;;10.70;99.90;;;;;;4879339;29;20132;-80
2023/12/11 00:06:11;;;;;;;40.55;6.15;;;10.60;99.90;;;;;;4879884;29;20033;-80
2023/12/11 00:08:37;;;;;;;33.13;5.45;;;10.60;99.90;;;;;;4850471;29;20478;-80
2023/12/11 00:11:02;;;;;;;50.53;5.65;;;10.60;99.90;;;;;;4866967;29;20371;-86
2023/12/11 00:13:28;;;;;;;43.63;6.03;;;10.60;99.90;;;;;;4883066;29;20037;-82
2023/12/11 00:15:54;;;;;;;44.42;6.15;;;10.60;99.90;;;;;;4866480;29;20033;-82
2023/12/11 00:18:19;;;;;;;41.33;6.28;;;10.60;99.90;;;;;;4851239;29;20072;-82
2023/12/11 00:20:45;;;;;;;47.85;5.85;;;10.60;99.90;;;;;;4835676;29;20478;-79
2023/12/11 00:23:11;;;;;;;36.00;5.60;;;10.60;99.90;;;;;;4851104;29;20036;-78
2023/12/11 00:25:39;;;;;;;41.10;5.78;;;10.60;99.90;;;;;;4866061;29;20033;-79
2023/12/11 00:28:05;;;;;;;49.03;5.80;;;10.60;99.90;;;;;;4852136;29;20041;-79
2023/12/11 00:30:30;;;;;;;45.53;6.80;;;10.60;99.90;;;;;;4883303;29;20483;-79
2023/12/11 00:32:56;;;;;;;48.15;6.50;;;10.60;99.90;;;;;;4866160;29;20029;-79
2023/12/11 00:35:22;;;;;;;39.13;5.30;;;10.60;99.90;;;;;;4850841;29;20363;-79
2023/12/11 00:37:47;;;;;;;55.53;7.93;;;10.60;99.90;;;;;;4865884;29;20398;-80
2023/12/11 00:40:13;;;;;;;47.03;6.13;;;10.60;99.90;;;;;;4850526;29;20089;-80
2023/12/11 00:42:39;;;;;;;49.72;6.40;;;10.60;99.90;;;;;;4865818;29;20044;-81
2023/12/11 00:45:05;;;;;;;43.58;6.35;;;10.60;99.90;;;;;;4866128;29;20040;-81
2023/12/11 00:47:31;;;;;;;38.95;6.25;;;10.60;99.90;;;;;;4851205;29;20044;-80
2023/12/11 00:49:57;;;;;;;44.35;5.68;;;10.50;99.90;;;;;;4850619;29;20394;-80
2023/12/11 00:52:22;;;;;;;54.75;5.93;;;10.50;99.90;;;;;;4850467;29;20446;-77
2023/12/11 00:54:48;;;;;;;48.92;7.47;;;10.60;99.90;;;;;;4865810;29;20035;-78
2023/12/11 00:57:13;;;;;;;46.00;6.10;;;10.60;99.90;;;;;;4850467;29;20033;-77
2023/12/11 00:59:39;;;;;;;40.22;5.97;;;10.50;99.90;;;;;;4882547;29;20048;-77
2023/12/11 01:02:05;;;;;;;45.20;6.05;;;10.50;99.90;;;;;;4866594;29;20093;-78
2023/12/11 01:04:30;;;;;;;46.08;5.90;;;10.50;99.90;;;;;;4866960;29;20037;-77
2023/12/11 01:06:56;;;;;;;51.08;8.13;;;10.50;99.90;;;;;;4851759;29;20092;-77
2023/12/11 01:09:22;;;;;;;45.33;5.43;;;10.50;99.90;;;;;;4850562;29;20037;-77
2023/12/11 01:11:47;;;;;;;34.92;5.25;;;10.50;99.90;;;;;;4850497;29;20052;-76
2023/12/11 01:14:13;;;;;;;53.75;6.40;;;10.50;99.90;;;;;;4882932;29;20455;-77
2023/12/11 01:16:39;;;;;;;47.83;6.13;;;10.50;99.90;;;;;;4882478;29;20374;-76
2023/12/11 01:19:05;;;;;;;42.67;5.88;;;10.50;99.90;;;;;;4849188;29;20037;-76
2023/12/11 01:21:30;;;;;;;41.45;6.15;;;10.50;99.90;;;;;;4882141;29;20383;-76
2023/12/11 01:23:56;;;;;;;53.63;7.18;;;10.50;99.90;;;;;;4882436;29;20044;-76
2023/12/11 01:26:22;;;;;;;44.97;5.90;;;10.50;99.90;;;;;;4881892;29;20033;-75
2023/12/11 01:28:47;;;;;;;43.25;5.43;;;10.50;99.90;;;;;;4882058;29;20406;-76
2023/12/11 01:31:13;;;;;;;41.88;5.70;;;10.50;99.90;;;;;;4881972;29;20040;-76
2023/12/11 01:33:38;;;;;;;46.78;6.22;;;10.50;99.90;;;;;;4850435;29;20370;-76
2023/12/11 01:36:04;;;;;;;44.47;5.90;;;10.50;99.90;;;;;;4849628;29;20510;-76
2023/12/11 01:38:30;;;;;;;45.30;6.35;;;10.60;99.90;;;;;;4850385;29;20053;-75
2023/12/11 01:40:56;;;;;;;51.67;5.43;;;10.60;99.90;;;;;;4882027;29;20128;-76
2023/12/11 01:43:21;;;;;;;42.20;5.30;;;10.60;99.90;;;;;;4865261;29;20370;-76
2023/12/11 01:46:03;;;;;;;47.42;6.30;;;10.60;99.90;;;;;;4849540;29;20040;-75
2023/12/11 01:48:29;;;;;;;48.70;7.32;;;10.50;99.90;;;;;;4865552;29;20036;-76
2023/12/11 01:50:55;;;;;;;42.83;5.65;;;10.50;99.90;;;;;;4850512;29;20506;-75
2023/12/11 01:53:21;;;;;;;48.30;5.65;;;10.50;99.90;;;;;;4849566;29;20076;-76
2023/12/11 01:55:49;;;;;;;44.60;6.25;;;10.50;99.90;;;;;;4864791;29;20033;-75
2023/12/11 01:58:16;;;;;;;36.75;5.60;;;10.50;99.90;;;;;;4881152;29;20045;-75
2023/12/11 02:00:42;;;;;;;41.97;5.22;;;10.50;99.90;;;;;;4881682;29;20084;-75
2023/12/11 02:03:09;;;;;;;41.33;6.60;;;10.50;99.90;;;;;;4865131;29;20033;-75
2023/12/11 02:05:36;;;;;;;35.60;5.35;;;10.50;99.90;;;;;;4881629;29;20029;-75
2023/12/11 02:08:01;;;;;;;51.80;5.10;;;10.50;99.90;;;;;;4881379;29;20085;-75
2023/12/11 02:10:27;;;;;;;40.20;5.72;;;10.50;99.90;;;;;;4834832;29;20120;-75
2023/12/11 02:12:53;;;;;;;51.72;5.70;;;10.50;99.90;;;;;;4881174;29;20381;-75
2023/12/11 02:15:46;;;;;;;48.17;6.63;;;10.50;99.90;;;;;;4881122;29;20028;-76
2023/12/11 02:18:13;;;;;;;51.33;6.75;;;10.50;99.90;;;;;;4862344;29;20049;-76
2023/12/11 02:20:41;;;;;;;39.80;5.28;;;10.50;99.90;;;;;;4880898;29;20029;-76
2023/12/11 02:23:23;;;;;;;39.55;5.43;;;10.50;99.90;;;;;;4881149;29;20036;-77
2023/12/11 02:25:57;;;;;;;47.47;6.63;;;10.60;99.90;;;;;;4881371;29;20110;-76
2023/12/11 02:28:23;;;;;;;46.38;6.35;;;10.50;99.90;;;;;;4865252;29;20112;-75
2023/12/11 02:30:52;;;;;;;42.45;5.07;;;10.50;99.90;;;;;;4880680;29;20120;-75
2023/12/11 02:33:18;;;;;;;37.38;5.15;;;10.50;99.90;;;;;;4849238;29;20585;-77
2023/12/11 02:35:44;;;;;;;49.13;5.40;;;10.50;99.90;;;;;;4864616;29;20112;-79
2023/12/11 02:38:10;;;;;;;39.83;5.07;;;10.60;99.90;;;;;;4864685;29;20127;-76
2023/12/11 02:40:35;;;;;;;45.42;6.28;;;10.50;99.90;;;;;;4848930;29;20136;-76
2023/12/11 02:43:01;;;;;;;45.55;6.00;;;10.50;99.90;;;;;;4864004;29;20029;-76
2023/12/11 02:45:26;;;;;;;42.67;5.43;;;10.50;99.90;;;;;;4848439;29;20390;-76
2023/12/11 02:47:56;;;;;;;47.03;7.35;;;10.50;99.90;;;;;;4863910;29;20040;-76
2023/12/11 02:50:22;;;;;;;42.47;6.90;;;10.60;99.90;;;;;;4863835;29;20037;-76
2023/12/11 02:52:48;;;;;;;40.40;6.18;;;10.60;99.90;;;;;;4880314;29;20036;-76
2023/12/11 02:55:13;;;;;;;45.38;5.60;;;10.60;99.90;;;;;;4863900;29;20059;-76
2023/12/11 02:57:40;;;;;;;35.08;4.78;;;10.60;99.90;;;;;;4880428;29;20120;-76
2023/12/11 03:00:06;;;;;;;41.38;5.90;;;10.50;99.90;;;;;;4880201;29;20169;-76
2023/12/11 03:02:32;;;;;;;39.92;5.82;;;10.50;99.90;;;;;;4863677;29;20033;-76
2023/12/11 03:04:58;;;;;;;38.60;5.80;;;10.50;99.90;;;;;;4848017;29;20033;-76
2023/12/11 03:07:25;;;;;;;46.88;6.00;;;10.50;99.90;;;;;;4863706;29;20039;-76
2023/12/11 03:09:51;;;;;;;50.53;6.63;;;10.50;99.90;;;;;;4880535;29;20427;-76
2023/12/11 03:12:17;;;;;;;35.33;4.95;;;10.40;99.90;;;;;;4848286;29;20033;-76
2023/12/11 03:14:43;;;;;;;37.63;4.53;;;10.40;99.90;;;;;;4863517;29;20040;-77
2023/12/11 03:17:09;;;;;;;35.58;5.03;;;10.40;99.90;;;;;;4848198;29;20033;-77
2023/12/11 03:19:34;;;;;;;39.78;6.03;;;10.40;99.90;;;;;;4833012;29;20076;-76
2023/12/11 03:22:00;;;;;;;40.00;5.40;;;10.40;99.90;;;;;;4863636;29;20497;-77
2023/12/11 03:24:26;;;;;;;34.60;5.68;;;10.40;99.90;;;;;;4847795;29;20406;-77
2023/12/11 03:26:51;;;;;;;29.80;3.60;;;10.40;99.90;;;;;;4848255;29;20033;-76
2023/12/11 03:29:17;;;;;;;26.55;3.13;;;10.40;99.90;;;;;;4880083;29;20089;-76
2023/12/11 03:31:43;;;;;;;24.10;3.78;;;10.40;99.90;;;;;;4863495;29;20080;-76
2023/12/11 03:34:08;;;;;;;31.55;3.40;;;10.40;99.90;;;;;;4863893;29;20045;-76
2023/12/11 03:36:34;;;;;;;20.95;3.45;;;10.30;99.90;;;;;;4863542;29;20140;-76
2023/12/11 03:38:59;;;;;;;22.75;3.17;;;10.30;99.90;;;;;;4879690;29;20045;-76
2023/12/11 03:41:25;;;;;;;32.03;3.83;;;10.30;99.90;;;;;;4847924;29;20125;-76
2023/12/11 03:43:51;;;;;;;29.50;3.75;;;10.30;99.90;;;;;;4863316;29;20474;-75
2023/12/11 03:46:16;;;;;;;27.10;3.83;;;10.30;99.90;;;;;;4863056;29;20037;-76
2023/12/11 03:48:42;;;;;;;25.02;4.28;;;10.30;99.90;;;;;;4833293;29;20034;-76
2023/12/11 03:51:08;;;;;;;32.45;4.18;;;10.30;99.90;;;;;;4863284;29;20040;-76
2023/12/11 03:53:33;;;;;;;31.88;4.43;;;10.30;99.90;;;;;;4863026;29;20033;-76
2023/12/11 03:55:59;;;;;;;30.17;3.63;;;10.40;99.90;;;;;;4862942;29;20042;-75
2023/12/11 03:58:24;;;;;;;32.03;4.30;;;10.40;99.90;;;;;;4863166;29;20040;-76
2023/12/11 04:00:50;;;;;;;29.25;3.17;;;10.40;99.90;;;;;;4862916;29;20537;-76
2023/12/11 04:03:16;;;;;;;21.38;3.40;;;10.40;99.90;;;;;;4863127;29;20039;-76
2023/12/11 04:05:41;;;;;;;27.77;3.45;;;10.40;99.90;;;;;;4863213;29;20037;-76
2023/12/11 04:08:07;;;;;;;22.17;3.17;;;10.40;99.90;;;;;;4847738;29;20128;-76
2023/12/11 04:10:33;;;;;;;24.65;3.78;;;10.40;99.90;;;;;;4863182;29;20066;-76
2023/12/11 04:13:00;;;;;;;26.30;3.17;;;10.40;99.90;;;;;;4879360;29;20033;-76
2023/12/11 04:15:26;;;;;;;23.75;2.92;;;10.40;99.90;;;;;;4879438;29;20435;-76
2023/12/11 04:17:51;;;;;;;17.02;2.60;;;10.40;99.90;;;;;;4862678;29;20038;-76
2023/12/11 04:20:17;;;;;;;26.98;2.40;;;10.40;99.90;;;;;;4862802;29;20501;-76
2023/12/11 04:22:42;;;;;;;22.58;3.10;;;10.40;99.90;;;;;;4862765;29;20474;-78
2023/12/11 04:25:08;;;;;;;24.55;3.55;;;10.40;99.90;;;;;;4879354;29;20112;-76
2023/12/11 04:27:34;;;;;;;25.85;3.75;;;10.40;99.90;;;;;;4879486;29;20040;-76
2023/12/11 04:30:00;;;;;;;27.83;3.85;;;10.50;99.90;;;;;;4879343;29;20041;-77
2023/12/11 04:32:25;;;;;;;28.15;4.07;;;10.50;99.90;;;;;;4863155;29;20037;-77
2023/12/11 04:34:51;;;;;;;24.95;4.05;;;10.50;99.90;;;;;;4863218;29;20040;-76
2023/12/11 04:37:17;;;;;;;36.30;4.75;;;10.50;99.90;;;;;;4862800;29;20052;-78
2023/12/11 04:39:43;;;;;;;34.47;4.65;;;10.50;99.90;;;;;;4863110;29;20037;-77
2023/12/11 04:42:09;;;;;;;33.05;4.18;;;10.50;99.90;;;;;;4862397;29;20039;-77
2023/12/11 04:44:35;;;;;;;38.80;6.22;;;10.50;99.90;;;;;;4879779;29;20033;-77
2023/12/11 04:47:00;;;;;;;38.83;4.55;;;10.40;99.90;;;;;;4862722;29;20413;-77
2023/12/11 04:49:26;;;;;;;40.22;5.13;;;10.50;99.90;;;;;;4862950;29;20075;-77
2023/12/11 04:51:52;;;;;;;35.95;4.53;;;10.50;99.90;;;;;;4862632;29;20133;-77
2023/12/11 04:54:18;;;;;;;34.55;4.95;;;10.40;99.90;;;;;;4863871;29;20060;-77
2023/12/11 04:56:44;;;;;;;35.83;5.00;;;10.50;99.90;;;;;;4850402;29;20097;-76
2023/12/11 04:59:09;;;;;;;40.83;4.97;;;10.40;99.90;;;;;;4850997;29;20459;-76
2023/12/11 05:01:35;;;;;;;36.72;5.80;;;10.50;99.90;;;;;;4866221;29;20089;-76
2023/12/11 05:04:00;;;;;;;33.22;4.50;;;10.50;99.90;;;;;;4865688;29;20037;-76
2023/12/11 05:06:26;;;;;;;37.90;6.13;;;10.50;99.90;;;;;;4882778;29;20043;-76
2023/12/11 05:08:52;;;;;;;35.17;5.00;;;10.50;99.90;;;;;;4865520;29;20056;-76
2023/12/11 05:11:17;;;;;;;33.38;5.28;;;10.50;99.90;;;;;;4866003;29;20044;-77
2023/12/11 05:13:43;;;;;;;42.22;5.50;;;10.50;99.90;;;;;;4865601;29;20347;-76
2023/12/11 05:16:09;;;;;;;35.67;4.72;;;10.50;99.90;;;;;;4850193;29;20033;-76
2023/12/11 05:18:36;;;;;;;40.00;4.80;;;10.50;99.90;;;;;;4865354;29;20078;-76
2023/12/11 05:21:09;;;;;;;40.92;4.95;;;10.50;99.90;;;;;;4882496;29;20463;-76
2023/12/11 05:23:35;;;;;;;45.83;5.82;;;10.50;99.90;;;;;;4882182;29;20029;-77
2023/12/11 05:26:01;;;;;;;29.60;3.97;;;10.60;99.90;;;;;;4850157;29;20040;-77
2023/12/11 05:28:27;;;;;;;41.78;5.82;;;10.50;99.90;;;;;;4865364;29;20397;-77
2023/12/11 05:30:52;;;;;;;34.55;4.50;;;10.60;99.90;;;;;;4882042;29;20037;-78
2023/12/11 05:33:18;;;;;;;39.83;5.07;;;10.60;99.90;;;;;;4881774;29;20036;-77
2023/12/11 05:35:44;;;;;;;37.20;4.28;;;10.60;99.90;;;;;;4850134;29;20036;-77
2023/12/11 05:38:09;;;;;;;39.53;5.22;;;10.50;99.90;;;;;;4882188;29;20045;-77
2023/12/11 05:40:35;;;;;;;40.88;4.93;;;10.50;99.90;;;;;;4865325;29;20041;-78
2023/12/11 05:43:00;;;;;;;35.88;5.03;;;10.50;99.90;;;;;;4849611;29;20040;-77
2023/12/11 05:45:26;;;;;;;41.10;5.28;;;10.50;99.90;;;;;;4865875;29;20033;-77
2023/12/11 05:47:52;;;;;;;45.00;5.13;;;10.50;99.90;;;;;;4834378;29;20068;-77
2023/12/11 05:50:18;;;;;;;41.05;5.15;;;10.50;99.90;;;;;;4864948;29;20037;-77
2023/12/11 05:52:44;;;;;;;39.03;4.90;;;10.50;99.90;;;;;;4849590;29;20065;-77
2023/12/11 05:55:10;;;;;;;36.60;4.75;;;10.40;99.90;;;;;;4865353;29;20036;-77
2023/12/11 05:57:36;;;;;;;32.53;4.78;;;10.40;99.90;;;;;;4864906;29;20043;-77
2023/12/11 06:00:03;;;;;;;31.92;4.35;;;10.50;99.90;;;;;;4881036;29;20083;-77
2023/12/11 06:02:29;;;;;;;37.88;5.00;;;10.50;99.90;;;;;;4864688;29;20033;-77
2023/12/11 06:04:54;;;;;;;35.88;4.50;;;10.50;99.90;;;;;;4864353;29;20487;-77
2023/12/11 06:07:20;;;;;;;36.20;4.57;;;10.50;99.90;;;;;;4849223;29;20166;-77
2023/12/11 06:09:46;;;;;;;39.78;5.00;;;10.50;99.90;;;;;;4864516;29;20466;-77
2023/12/11 06:12:11;;;;;;;41.22;4.82;;;10.50;99.90;;;;;;4864291;29;20041;-77
2023/12/11 06:14:41;;;;;;;25.48;3.20;;;10.50;99.90;;;;;;4849425;29;20451;-77
2023/12/11 06:17:06;;;;;;;32.03;4.05;;;10.50;99.90;;;;;;4881460;29;20131;-77
2023/12/11 06:19:32;;;;;;;40.70;4.85;;;10.50;99.90;;;;;;4849048;29;20232;-77
2023/12/11 06:21:58;;;;;;;33.00;4.40;;;10.50;99.90;;;;;;4864157;29;20525;-77
2023/12/11 06:24:23;;;;;;;27.08;3.67;;;10.40;99.90;;;;;;4848958;29;20454;-78
2023/12/11 06:26:49;;;;;;;36.78;5.15;;;10.40;99.90;;;;;;4864376;29;20493;-77
2023/12/11 06:29:14;;;;;;;33.75;3.47;;;10.40;99.90;;;;;;4849306;29;20136;-78
2023/12/11 06:31:40;;;;;;;35.03;4.53;;;10.40;99.90;;;;;;4864010;29;20093;-77
2023/12/11 06:34:06;;;;;;;30.30;3.35;;;10.40;99.90;;;;;;4864126;29;20089;-77
2023/12/11 06:36:31;;;;;;;37.88;4.47;;;10.40;99.90;;;;;;4863767;29;20057;-77
2023/12/11 06:38:57;;;;;;;33.67;4.53;;;10.40;99.90;;;;;;4864070;29;20041;-79
2023/12/11 06:41:23;;;;;;;36.40;4.97;;;10.40;99.90;;;;;;4849187;29;20474;-78
2023/12/11 06:43:52;;;;;;;31.15;4.03;;;10.40;99.90;;;;;;4849052;29;20043;-79
2023/12/11 06:46:18;;;;;;;28.23;3.55;;;10.30;99.90;;;;;;4863893;29;20549;-79
2023/12/11 06:48:44;;;;;;;42.97;4.45;;;10.30;99.90;;;;;;4864496;29;20041;-79
2023/12/11 06:51:10;;;;;;;35.72;4.00;;;10.30;99.90;;;;;;4880166;29;20453;-79
2023/12/11 06:53:36;;;;;;;37.38;4.28;;;10.20;99.90;;;;;;4847947;29;20029;-78
2023/12/11 06:56:01;;;;;;;37.20;3.88;;;10.20;99.90;;;;;;4864060;29;20033;-76
2023/12/11 06:58:27;;;;;;;31.95;3.95;;;10.20;99.90;;;;;;4880091;29;20442;-79
2023/12/11 07:00:53;;;;;;;36.83;3.92;;;10.20;99.90;;;;;;4880086;29;20036;-79
2023/12/11 07:03:19;;;;;;;29.27;3.75;;;10.20;99.90;;;;;;4863706;29;20362;-79
2023/12/11 07:05:44;;;;;;;22.38;3.20;;;10.20;99.90;;;;;;4863409;29;20033;-79
2023/12/11 07:08:11;;;;;;;32.97;4.53;;;10.20;99.90;;;;;;4848027;29;20037;-79
2023/12/11 07:10:42;;;;;;;31.88;4.05;;;10.20;99.90;;;;;;4879995;29;20108;-79
2023/12/11 07:13:08;;;;;;;37.13;4.82;;;10.20;99.90;;;;;;4863295;29;20037;-79
2023/12/11 07:15:33;;;;;;;29.00;3.70;;;10.20;99.90;;;;;;4863089;29;20037;-80
2023/12/11 07:17:59;;;;;;;37.25;4.50;;;10.20;99.90;;;;;;4862566;29;20048;-79
2023/12/11 07:20:25;;;;;;;26.23;4.20;;;10.30;99.90;;;;;;4847896;29;20067;-79
2023/12/11 07:22:50;;;;;;;28.55;4.03;;;10.20;99.90;;;;;;4863203;29;20092;-80
2023/12/11 07:25:16;;;;;;;23.42;4.25;;;10.30;99.90;;;;;;4863134;29;20132;-78
2023/12/11 07:27:43;;;;;;;30.92;3.72;;;10.20;99.90;;;;;;4879936;29;20029;-79
2023/12/11 07:30:10;;;;;;;25.83;3.45;;;10.20;99.90;;;;;;4863265;29;20036;-80
2023/12/11 07:32:37;;;;;;;35.72;4.65;;;10.20;99.90;;;;;;4863220;29;20036;-83
2023/12/11 07:35:03;;;;;;;28.45;3.33;;;10.20;99.90;;;;;;4833516;29;20037;-76
2023/12/11 07:37:32;;;;;;;24.80;3.33;;;10.20;99.90;;;;;;4847741;29;20080;-77
2023/12/11 07:39:57;;;;;;;24.52;3.22;;;10.20;99.90;;;;;;4863621;29;20431;-75
2023/12/11 07:42:23;;;;;;;26.70;3.28;;;10.20;99.90;;;;;;4863023;29;20039;-76
2023/12/11 07:44:49;;;;;;;20.77;2.47;;;10.20;99.90;;;;;;4879559;29;20037;-76
2023/12/11 07:47:14;;;;;;;22.95;2.67;;;10.20;99.90;;;;;;4863359;29;20082;-76
2023/12/11 07:49:40;;;;;;;22.15;3.13;;;10.10;99.90;;;;;;4847640;29;20120;-75
2023/12/11 07:52:06;;;;;;;19.65;2.58;;;10.10;99.90;;;;;;4832302;29;20033;-76
2023/12/11 07:54:31;;;;;;;25.25;3.05;;;10.00;99.90;;;;;;4862873;29;20040;-75
2023/12/11 07:56:58;;;;;;;20.45;2.50;;;10.00;99.90;;;;;;4847998;29;20033;-77
2023/12/11 07:59:24;;;;;;;24.20;3.05;;;10.00;99.90;;;;;;4847665;29;20041;-79
2023/12/11 08:01:52;;;;;;;18.90;2.42;;;10.00;99.90;;;;;;4863211;29;20037;-78
2023/12/11 08:04:17;;;;;;;21.88;1.90;;;10.00;99.90;;;;;;4879803;29;20052;-78
2023/12/11 08:06:43;;;;;;;20.23;3.83;;;10.00;99.90;;;;;;4847267;29;20466;-77
2023/12/11 08:09:09;;;;;;;17.00;2.38;;;10.10;99.90;;;;;;4879691;29;20041;-78
2023/12/11 08:11:35;;;;;;;23.08;3.05;;;10.10;99.90;;;;;;4879500;29;20029;-77
2023/12/11 08:14:01;;;;;;;20.55;1.85;;;10.10;99.90;;;;;;4847603;29;20037;-77
2023/12/11 08:16:27;;;;;;;13.75;1.70;;;10.10;99.90;;;;;;4879733;29;20037;-77
2023/12/11 08:18:53;;;;;;;14.68;1.75;;;10.10;99.90;;;;;;4879669;29;20080;-77
2023/12/11 08:21:19;;;;;;;18.38;2.08;;;10.10;99.90;;;;;;4862475;29;20089;-78
2023/12/11 08:23:47;;;;;;;15.70;1.85;;;10.10;99.90;;;;;;4879257;29;20036;-78
2023/12/11 08:26:18;;;;;;;13.45;1.83;;;10.00;99.90;;;;;;4862324;29;20036;-78
2023/12/11 08:28:43;;;;;;;12.27;1.73;;;10.00;99.90;;;;;;4864212;29;20101;-78
2023/12/11 08:31:09;;;;;;;11.68;1.38;;;10.10;99.90;;;;;;4850874;29;20033;-78
2023/12/11 08:33:35;;;;;;;10.93;2.13;;;10.10;99.90;;;;;;4866288;29;20044;-78
2023/12/11 08:36:02;;;;;;;14.65;1.42;;;10.10;99.90;;;;;;4865803;29;20553;-77
2023/12/11 08:38:28;;;;;;;10.90;1.80;;;10.10;99.90;;;;;;4865761;29;20474;-77
2023/12/11 08:40:54;;;;;;;11.60;1.67;;;10.10;99.90;;;;;;4865853;29;20037;-77
2023/12/11 08:43:19;;;;;;;13.90;2.15;;;10.10;99.90;;;;;;4882342;29;20096;-78
2023/12/11 08:45:45;;;;;;;15.07;2.17;;;10.10;99.90;;;;;;4882324;29;20104;-77
2023/12/11 08:48:11;;;;;;;16.27;1.90;;;10.10;99.90;;;;;;4865374;29;20045;-78
2023/12/11 08:50:37;;;;;;;10.48;1.98;;;10.10;99.90;;;;;;4866227;29;20040;-75
2023/12/11 08:53:03;;;;;;;12.63;2.00;;;10.10;99.90;;;;;;4865901;29;20435;-78
2023/12/11 08:55:29;;;;;;;13.27;1.70;;;10.10;99.90;;;;;;4865663;29;20120;-77
2023/12/11 08:57:55;;;;;;;8.18;1.30;;;10.10;99.90;;;;;;4881909;29;20037;-77
2023/12/11 09:00:21;;;;;;;14.38;1.50;;;10.20;99.90;;;;;;4865619;29;20037;-77
2023/12/11 09:02:48;;;;;;;11.90;1.35;;;10.20;99.90;;;;;;4865433;29;20056;-76
2023/12/11 09:05:14;;;;;;;11.00;1.08;;;10.20;99.90;;;;;;4882037;29;20474;-77
2023/12/11 09:07:40;;;;;;;12.70;1.38;;;10.20;99.90;;;;;;4882461;29;20040;-77
2023/12/11 09:10:08;;;;;;;12.23;1.48;;;10.20;99.90;;;;;;4865962;29;20033;-76
2023/12/11 09:12:35;;;;;;;16.52;2.30;;;10.20;99.90;;;;;;4881933;29;20032;-76
2023/12/11 09:15:02;;;;;;;9.48;1.48;;;10.30;99.90;;;;;;4865369;29;20033;-77
2023/12/11 09:17:28;;;;;;;11.15;1.25;;;10.30;99.90;;;;;;4881774;29;20108;-77
2023/12/11 09:19:54;;;;;;;9.45;1.63;;;10.30;99.90;;;;;;4865132;29;20128;-77
2023/12/11 09:22:19;;;;;;;11.90;1.38;;;10.30;99.90;;;;;;4865189;29;20088;-77
2023/12/11 09:24:45;;;;;;;8.70;1.35;;;10.40;99.90;;;;;;4865016;29;20044;-75
2023/12/11 09:27:11;;;;;;;6.00;0.93;;;10.40;99.90;;;;;;4865686;29;20092;-77
2023/12/11 09:29:37;;;;;;;10.90;1.15;;;10.40;99.90;;;;;;4865086;29;20047;-78
2023/12/11 09:32:03;;;;;;;9.23;1.38;;;10.50;99.90;;;;;;4865310;29;20132;-78
2023/12/11 09:34:29;;;;;;;9.02;0.70;;;10.50;99.90;;;;;;4864998;29;20029;-77
2023/12/11 09:36:55;;;;;;;12.30;1.20;;;10.50;99.90;;;;;;4865010;29;20063;-78
2023/12/11 09:39:22;;;;;;;8.48;1.13;;;10.50;99.90;;;;;;4864753;29;20501;-77
2023/12/11 09:41:49;;;;;;;8.07;0.93;;;10.50;99.90;;;;;;4865321;29;20060;-76
2023/12/11 09:44:17;;;;;;;13.40;1.00;;;10.50;99.90;;;;;;4865607;29;20037;-77
2023/12/11 09:47:05;;;;;;;10.85;1.17;;;10.50;99.90;;;;;;4850060;29;20109;-77
2023/12/11 09:49:30;;;;;;;9.05;1.40;;;10.60;99.90;;;;;;4881505;29;20165;-78
2023/12/11 09:51:56;;;;;;;7.63;1.00;;;10.60;99.90;;;;;;4864473;29;20061;-78
2023/12/11 09:54:22;;;;;;;8.63;1.48;;;10.60;99.90;;;;;;4865012;29;20033;-78
2023/12/11 09:56:48;;;;;;;9.73;1.30;;;10.60;99.90;;;;;;4864580;29;20107;-79
2023/12/11 09:59:15;;;;;;;10.75;1.27;;;10.60;99.90;;;;;;4880928;29;20438;-79
2023/12/11 10:01:40;;;;;;;12.07;1.55;;;10.70;99.90;;;;;;4849438;29;20040;-81
2023/12/11 10:04:07;;;;;;;11.68;2.22;;;10.70;99.90;;;;;;4833934;29;20033;-79
2023/12/11 10:06:32;;;;;;;9.90;1.25;;;10.70;99.90;;;;;;4881343;29;20029;-78
2023/12/11 10:08:58;;;;;;;11.60;0.98;;;10.60;99.90;;;;;;4849026;29;20063;-77
2023/12/11 10:11:26;;;;;;;9.48;1.45;;;10.70;99.90;;;;;;4881021;29;20037;-77
2023/12/11 10:13:52;;;;;;;10.40;2.03;;;10.70;99.90;;;;;;4864934;29;20112;-77
2023/12/11 10:16:31;;;;;;;13.30;1.35;;;10.70;99.90;;;;;;4881352;29;20144;-77
2023/12/11 10:18:59;;;;;;;12.20;1.73;;;10.70;99.90;;;;;;4880922;29;20367;-77
2023/12/11 10:21:25;;;;;;;11.02;1.70;;;10.70;99.90;;;;;;4880893;29;20128;-76
2023/12/11 10:24:07;;;;;;;10.90;1.70;;;10.60;99.90;;;;;;4880855;29;20108;-75
2023/12/11 10:26:37;;;;;;;9.18;1.20;;;10.60;99.90;;;;;;4880797;29;20116;-78
2023/12/11 10:29:23;;;;;;;14.65;1.80;;;10.60;99.90;;;;;;4881361;29;20040;-78
2023/12/11 10:32:00;;;;;;;14.02;1.88;;;10.50;99.90;;;;;;4880796;29;20029;-78
2023/12/11 10:34:45;;;;;;;17.92;3.28;;;10.50;99.90;;;;;;4880791;29;20037;-78
2023/12/11 10:37:16;;;;;;;20.25;1.88;;;10.50;99.90;;;;;;4880898;29;20045;-76
2023/12/11 10:39:52;;;;;;;17.73;2.42;;;10.40;99.90;;;;;;4880811;29;20362;-77
2023/12/11 10:42:18;;;;;;;15.30;2.55;;;10.40;99.90;;;;;;4864249;29;20071;-77
2023/12/11 10:44:44;;;;;;;14.00;2.00;;;10.50;99.90;;;;;;4863861;29;20064;-78
2023/12/11 10:47:10;;;;;;;22.05;2.53;;;10.50;99.90;;;;;;4880717;29;20037;-77
2023/12/11 10:49:37;;;;;;;19.42;3.05;;;10.50;99.90;;;;;;4880739;29;20048;-77
2023/12/11 10:52:03;;;;;;;20.73;3.22;;;10.50;99.90;;;;;;4847611;29;20033;-77
2023/12/11 10:54:29;;;;;;;16.13;1.92;;;10.50;99.90;;;;;;4849078;29;20096;-77
2023/12/11 10:56:56;;;;;;;15.95;2.08;;;10.50;99.90;;;;;;4848171;29;20029;-78
2023/12/11 10:59:22;;;;;;;14.43;1.98;;;10.50;99.90;;;;;;4863623;29;20177;-80
2023/12/11 11:01:49;;;;;;;10.95;2.05;;;10.50;99.90;;;;;;4848761;29;20132;-78
2023/12/11 11:04:18;;;;;;;14.90;2.25;;;10.50;99.90;;;;;;4880005;29;20033;-77
2023/12/11 11:07:00;;;;;;;12.95;1.95;;;10.50;99.90;;;;;;4880237;29;20029;-77
2023/12/11 11:09:34;;;;;;;13.00;1.70;;;10.50;99.90;;;;;;4880162;29;20024;-77
2023/12/11 11:12:11;;;;;;;17.38;2.58;;;10.60;99.90;;;;;;4863239;29;20108;-77
2023/12/11 11:14:48;;;;;;;16.92;2.00;;;10.60;99.90;;;;;;4880030;29;20095;-76
2023/12/11 11:17:16;;;;;;;16.55;2.03;;;10.60;99.90;;;;;;4862697;29;20036;-77
2023/12/11 11:20:20;;;;;;;17.95;2.95;;;10.60;99.90;;;;;;4879930;29;20033;-77
2023/12/11 11:22:46;;;;;;;18.15;3.30;;;10.60;99.90;;;;;;4807242;29;20448;-77
2023/12/11 11:25:31;;;;;;;16.85;2.38;;;10.50;99.90;;;;;;4822729;29;20057;-77
2023/12/11 11:27:57;;;;;;;17.40;1.98;;;10.50;99.90;;;;;;4840491;29;20052;-77
2023/12/11 11:30:48;;;;;;;15.15;1.83;;;10.40;99.90;;;;;;4862676;29;20402;-77
2023/12/11 11:33:14;;;;;;;13.07;1.63;;;10.40;99.90;;;;;;4872927;29;20096;-77
2023/12/11 11:35:45;;;;;;;13.32;2.50;;;10.30;99.90;;;;;;4878828;29;20426;-75
2023/12/11 11:38:21;;;;;;;20.42;2.05;;;10.30;99.90;;;;;;4879892;29;20030;-75
2023/12/11 11:40:48;;;;;;;8.55;1.65;;;10.30;99.90;;;;;;4879791;29;20040;-75
2023/12/11 11:43:14;;;;;;;15.40;1.90;;;10.40;99.90;;;;;;4879298;29;20037;-76
2023/12/11 11:45:41;;;;;;;11.95;1.65;;;10.40;99.90;;;;;;4879456;29;20045;-75
2023/12/11 11:48:06;;;;;;;10.90;1.33;;;10.50;99.90;;;;;;4879223;29;20493;-75
2023/12/11 11:50:32;;;;;;;8.68;1.10;;;10.50;99.90;;;;;;4862549;29;20033;-75
2023/12/11 11:53:11;;;;;;;12.85;1.10;;;10.60;99.90;;;;;;4878945;29;20033;-76
2023/12/11 11:55:39;;;;;;;17.00;1.88;;;10.70;99.90;;;;;;4879603;29;20037;-79
2023/12/11 11:58:14;;;;;;;9.45;1.73;;;10.80;99.90;;;;;;4878910;29;20167;-77
2023/12/11 12:00:41;;;;;;;14.20;1.52;;;10.80;99.90;;;;;;4879125;29;20543;-77
2023/12/11 12:03:08;;;;;;;12.07;1.30;;;10.80;99.90;;;;;;4863467;29;20052;-77
2023/12/11 12:05:57;;;;;;;9.48;0.90;;;10.80;99.90;;;;;;4883554;29;20025;-75
2023/12/11 12:08:23;;;;;;;9.77;1.10;;;10.80;99.90;;;;;;4865850;29;20044;-77
2023/12/11 12:10:49;;;;;;;13.68;1.48;;;10.80;99.90;;;;;;4851210;29;20036;-76
2023/12/11 12:13:14;;;;;;;9.45;0.95;;;10.70;99.90;;;;;;4866340;29;20064;-77
2023/12/11 12:15:44;;;;;;;11.88;1.35;;;10.70;99.90;;;;;;4866400;29;20041;-77
2023/12/11 12:18:10;;;;;;;11.02;1.30;;;10.60;99.90;;;;;;4865960;29;20055;-77
2023/12/11 12:20:36;;;;;;;9.23;0.98;;;10.70;99.90;;;;;;4883501;29;20037;-77
2023/12/11 12:23:03;;;;;;;13.02;1.15;;;10.70;99.90;;;;;;4866650;29;20025;-78
2023/12/11 12:25:30;;;;;;;11.15;1.45;;;10.70;99.90;;;;;;4882944;29;20040;-76
2023/12/11 12:28:01;;;;;;;9.95;1.17;;;10.70;99.90;;;;;;4866059;29;20056;-78
2023/12/11 12:30:27;;;;;;;11.80;1.23;;;10.80;99.90;;;;;;4866535;29;20037;-78
2023/12/11 12:32:54;;;;;;;15.73;2.17;;;10.80;99.90;;;;;;4882824;29;20374;-77
2023/12/11 12:35:21;;;;;;;9.20;1.17;;;10.80;99.90;;;;;;4882771;29;20033;-77
2023/12/11 12:37:51;;;;;;;15.15;1.40;;;10.80;99.90;;;;;;4865787;29;20053;-77